createdAt,value
2018-09-01T00:03:07.968Z,23.4
2018-09-01T00:08:05.348Z,23.3
2018-09-01T00:13:02.388Z,23.3
2018-09-01T00:17:59.482Z,23.2
2018-09-01T00:22:56.933Z,23.1
2018-09-01T00:27:53.964Z,22.9
2018-09-01T00:32:51.251Z,23
2018-09-01T00:37:48.302Z,23
2018-09-01T00:42:45.280Z,22.9
2018-09-01T00:47:42.219Z,22.8
2018-09-01T00:52:39.270Z,22.8
2018-09-01T00:57:36.701Z,22.8
2018-09-01T01:02:34.117Z,22.7
2018-09-01T01:07:31.446Z,22.7
2018-09-01T01:12:28.902Z,22.7
2018-09-01T01:17:26.029Z,22.6
2018-09-01T01:22:23.062Z,22.6
2018-09-01T01:27:20.159Z,22.6
2018-09-01T01:32:17.469Z,22.5
2018-09-01T01:37:14.791Z,22.5
2018-09-01T01:42:11.932Z,22.5
2018-09-01T01:47:08.951Z,22.4
2018-09-01T01:52:06.508Z,22.3
2018-09-01T01:57:04.263Z,22
2018-09-01T02:02:01.668Z,22.2
2018-09-01T02:06:59.120Z,22.2
2018-09-01T02:11:56.072Z,22.1
2018-09-01T02:16:54.026Z,22.1
2018-09-01T02:21:51.029Z,22.1
2018-09-01T02:26:49.747Z,22
2018-09-01T02:31:46.317Z,22
2018-09-01T02:36:43.793Z,22
2018-09-01T02:41:41.037Z,22
2018-09-01T02:46:39.218Z,22
2018-09-01T02:51:36.430Z,21.6
2018-09-01T02:56:33.758Z,21.9
2018-09-01T03:01:31.236Z,21.9
2018-09-01T03:06:28.790Z,21.8
2018-09-01T03:11:25.654Z,21.8
2018-09-01T03:16:24.383Z,21.7
2018-09-01T03:21:21.464Z,21.7
2018-09-01T03:26:18.748Z,20.8
2018-09-01T03:31:15.832Z,21.5
2018-09-01T03:36:12.874Z,21.5
2018-09-01T03:41:10.031Z,21.5
2018-09-01T03:46:07.601Z,21.5
2018-09-01T03:51:08.709Z,20.6
2018-09-01T03:56:05.638Z,21.3
2018-09-01T04:01:02.624Z,21.3
2018-09-01T04:05:59.884Z,21.3
2018-09-01T04:10:56.872Z,21.3
2018-09-01T04:15:53.938Z,21.3
2018-09-01T04:20:51.211Z,21.2
2018-09-01T04:25:48.547Z,21.2
2018-09-01T04:30:45.669Z,21.2
2018-09-01T04:35:42.885Z,21.2
2018-09-01T04:40:40.055Z,21.2
2018-09-01T04:45:37.264Z,21
2018-09-01T04:50:35.628Z,20.9
2018-09-01T04:55:32.268Z,21.2
2018-09-01T05:00:30.042Z,21.2
2018-09-01T05:05:26.903Z,20.5
2018-09-01T05:10:23.943Z,21.3
2018-09-01T05:15:22.001Z,21.3
2018-09-01T05:20:19.473Z,21.3
2018-09-01T05:25:16.482Z,21.3
2018-09-01T05:30:13.742Z,21.4
2018-09-01T05:35:12.195Z,21.4
2018-09-01T05:40:09.289Z,21.4
2018-09-01T05:45:07.620Z,21.4
2018-09-01T05:50:04.831Z,21.5
2018-09-01T05:55:03.328Z,21.5
2018-09-01T06:00:00.388Z,21.5
2018-09-01T06:04:58.129Z,21.5
2018-09-01T06:09:55.014Z,21.6
2018-09-01T06:14:52.560Z,21.6
2018-09-01T06:19:53.063Z,21.7
2018-09-01T06:24:55.689Z,21.7
2018-09-01T06:29:51.596Z,21.7
2018-09-01T06:34:48.954Z,21.8
2018-09-01T06:39:46.360Z,21.8
2018-09-01T06:44:44.073Z,21.8
2018-09-01T06:49:41.371Z,21.8
2018-09-01T06:54:38.997Z,21.9
2018-09-01T06:59:40.912Z,21.9
2018-09-01T07:04:37.880Z,22
2018-09-01T07:14:45.683Z,22.1
2018-09-01T07:19:43.214Z,22.1
2018-09-01T07:24:41.357Z,22.2
2018-09-01T07:29:47.407Z,21.6
2018-09-01T07:34:47.647Z,21.6
2018-09-01T07:39:52.476Z,22.1
2018-09-01T07:44:53.138Z,22.2
2018-09-01T07:50:05.559Z,22.6
2018-09-01T07:55:03.401Z,22.1
2018-09-01T08:00:01.076Z,22.8
2018-09-01T08:04:58.077Z,22.9
2018-09-01T08:09:55.887Z,22.9
2018-09-01T08:14:53.309Z,23
2018-09-01T08:19:53.060Z,23.1
2018-09-01T08:24:50.353Z,23.2
2018-09-01T08:29:47.613Z,23.3
2018-09-01T08:34:44.862Z,23.4
2018-09-01T08:39:42.539Z,23.5
2018-09-01T08:44:40.110Z,23.7
2018-09-01T08:49:52.698Z,23.7
2018-09-01T08:54:47.493Z,24
2018-09-01T08:59:45.625Z,24.1
2018-09-01T09:04:44.203Z,23.5
2018-09-01T09:09:41.024Z,24.3
2018-09-01T09:14:38.596Z,24.5
2018-09-01T09:19:37.726Z,24.6
2018-09-01T09:24:35.236Z,24.7
2018-09-01T09:29:35.021Z,24.8
2018-09-01T09:34:38.204Z,24.6
2018-09-01T09:39:34.372Z,24.4
2018-09-01T09:44:31.267Z,25.3
2018-09-01T09:49:28.963Z,25.4
2018-09-01T09:54:26.650Z,25.6
2018-09-01T09:59:24.325Z,25.9
2018-09-01T10:04:26.262Z,25.9
2018-09-01T10:09:22.453Z,26.4
2018-09-01T10:14:20.395Z,26.5
2018-09-01T10:19:17.943Z,26.7
2018-09-01T10:24:15.607Z,26.8
2018-09-01T10:29:12.972Z,27
2018-09-01T10:34:10.534Z,26.9
2018-09-01T10:39:08.482Z,27.2
2018-09-01T10:44:14.519Z,26.6
2018-09-01T10:49:09.987Z,27.4
2018-09-01T10:54:11.081Z,27.5
2018-09-01T10:59:08.742Z,27.5
2018-09-01T11:04:06.648Z,27.7
2018-09-01T11:09:03.891Z,27.8
2018-09-01T11:14:03.481Z,28
2018-09-01T11:19:04.960Z,28.1
2018-09-01T11:24:03.133Z,28.3
2018-09-01T11:29:00.367Z,28.5
2018-09-01T11:33:57.636Z,28.7
2018-09-01T11:38:55.233Z,28.8
2018-09-01T11:43:52.656Z,29
2018-09-01T11:48:50.412Z,29.1
2018-09-01T11:53:47.974Z,29.3
2018-09-01T11:58:45.924Z,29.5
2018-09-01T12:03:48.528Z,29.7
2018-09-01T12:08:45.024Z,29.8
2018-09-01T12:13:41.931Z,29.9
2018-09-01T12:18:39.145Z,30
2018-09-01T12:23:39.514Z,30.1
2018-09-01T12:28:36.637Z,30.1
2018-09-01T12:33:34.607Z,30.1
2018-09-01T12:38:34.648Z,30
2018-09-01T12:43:31.914Z,30
2018-09-01T12:48:33.114Z,30.1
2018-09-01T12:53:34.606Z,29.7
2018-09-01T12:58:31.967Z,30.4
2018-09-01T13:03:29.374Z,30.4
2018-09-01T13:08:26.697Z,30.4
2018-09-01T13:13:27.966Z,30.3
2018-09-01T13:18:24.243Z,30.3
2018-09-01T13:23:23.079Z,30.4
2018-09-01T13:28:29.180Z,30.4
2018-09-01T13:33:24.636Z,30.4
2018-09-01T13:38:23.039Z,29.7
2018-09-01T13:43:20.902Z,30.3
2018-09-01T13:53:26.973Z,30.3
2018-09-01T13:58:24.584Z,30.1
2018-09-01T14:03:21.812Z,30.2
2018-09-01T14:08:21.153Z,30.1
2018-09-01T14:13:18.017Z,30
2018-09-01T14:18:15.487Z,30
2018-09-01T14:23:12.816Z,30
2018-09-01T14:28:10.952Z,30
2018-09-01T14:33:08.170Z,29.9
2018-09-01T14:38:05.362Z,29.9
2018-09-01T14:43:02.857Z,29.8
2018-09-01T14:48:00.151Z,29.7
2018-09-01T14:52:57.136Z,29.6
2018-09-01T14:57:54.325Z,29.6
2018-09-01T15:02:52.626Z,29.5
2018-09-01T15:07:49.770Z,29.4
2018-09-01T15:12:47.967Z,29.3
2018-09-01T15:17:45.291Z,29.3
2018-09-01T15:22:42.389Z,29.2
2018-09-01T15:27:39.986Z,29.1
2018-09-01T15:32:37.388Z,29.1
2018-09-01T15:37:34.191Z,29
2018-09-01T15:42:31.222Z,28.9
2018-09-01T15:47:28.606Z,28.8
2018-09-01T15:52:26.016Z,28.7
2018-09-01T15:57:23.557Z,28.6
2018-09-01T16:02:20.927Z,28.5
2018-09-01T16:07:18.803Z,28.5
2018-09-01T16:12:16.342Z,28.4
2018-09-01T16:17:13.508Z,28.1
2018-09-01T16:22:10.503Z,28.2
2018-09-01T16:27:08.785Z,28.1
2018-09-01T16:32:05.781Z,28.1
2018-09-01T16:37:03.010Z,28
2018-09-01T16:41:59.563Z,27.9
2018-09-01T16:46:56.938Z,27.8
2018-09-01T16:51:54.218Z,27.8
2018-09-01T16:56:51.750Z,27.7
2018-09-01T17:01:49.003Z,27.6
2018-09-01T17:06:46.131Z,27.5
2018-09-01T17:11:43.278Z,27.5
2018-09-01T17:16:41.880Z,26.8
2018-09-01T17:21:39.384Z,27.3
2018-09-01T17:26:36.724Z,27.2
2018-09-01T17:31:33.932Z,27.2
2018-09-01T17:36:31.364Z,27.1
2018-09-01T17:41:28.549Z,27.1
2018-09-01T17:46:26.180Z,27
2018-09-01T17:51:23.332Z,27
2018-09-01T17:56:20.856Z,27
2018-09-01T18:01:18.314Z,26.9
2018-09-01T18:06:15.764Z,26.8
2018-09-01T18:11:12.997Z,26.6
2018-09-01T18:16:10.197Z,26.8
2018-09-01T18:21:07.660Z,26.7
2018-09-01T18:26:04.817Z,26.7
2018-09-01T18:31:01.968Z,26.6
2018-09-01T18:35:59.749Z,26.6
2018-09-01T18:40:56.604Z,26.6
2018-09-01T18:45:55.209Z,26.5
2018-09-01T18:50:52.534Z,26.5
2018-09-01T18:55:50.157Z,26.4
2018-09-01T19:00:47.840Z,25.7
2018-09-01T19:05:45.140Z,25.7
2018-09-01T19:10:42.382Z,25.7
2018-09-01T19:15:40.890Z,25.7
2018-09-01T19:20:39.144Z,26.3
2018-09-01T19:25:35.745Z,25.5
2018-09-01T19:30:32.965Z,26.2
2018-09-01T19:35:30.152Z,26.1
2018-09-01T19:40:28.960Z,26.1
2018-09-01T19:45:26.112Z,25.5
2018-09-01T19:50:26.191Z,26
2018-09-01T19:55:23.247Z,26
2018-09-01T20:00:21.221Z,26
2018-09-01T20:05:18.463Z,25.9
2018-09-01T20:10:15.882Z,25.9
2018-09-01T20:15:13.015Z,25.8
2018-09-01T20:20:10.439Z,25.1
2018-09-01T20:25:07.785Z,25.7
2018-09-01T20:30:06.202Z,25.7
2018-09-01T20:35:03.614Z,25.6
2018-09-01T20:40:00.742Z,25.6
2018-09-01T20:44:58.447Z,25.6
2018-09-01T20:49:55.407Z,25.5
2018-09-01T20:54:53.629Z,24.8
2018-09-01T20:59:51.162Z,25.4
2018-09-01T21:04:48.364Z,25.4
2018-09-01T21:09:46.323Z,25.3
2018-09-01T21:14:44.048Z,25.3
2018-09-01T21:19:40.902Z,24.6
2018-09-01T21:24:38.462Z,25.1
2018-09-01T21:29:35.661Z,25
2018-09-01T21:34:34.107Z,25
2018-09-01T21:39:31.395Z,24.7
2018-09-01T21:44:29.159Z,24.9
2018-09-01T21:49:26.848Z,24.8
2018-09-01T21:54:23.936Z,24.7
2018-09-01T21:59:21.528Z,24.6
2018-09-01T22:04:19.005Z,24.5
2018-09-01T22:09:16.137Z,24.5
2018-09-01T22:14:13.195Z,24.4
2018-09-01T22:19:10.383Z,24.4
2018-09-01T22:24:08.280Z,24.3
2018-09-01T22:29:05.589Z,24.2
2018-09-01T22:34:03.053Z,24.1
2018-09-01T22:39:00.239Z,24
2018-09-01T22:43:58.104Z,24
2018-09-01T22:48:55.697Z,23.9
2018-09-01T22:53:53.139Z,23.9
2018-09-01T22:58:50.623Z,23.7
2018-09-01T23:03:47.825Z,23.6
2018-09-01T23:08:45.160Z,23.6
2018-09-01T23:13:42.558Z,23.5
2018-09-01T23:18:39.785Z,23.5
2018-09-01T23:23:37.039Z,23.4
2018-09-01T23:28:34.155Z,22.9
2018-09-01T23:33:31.982Z,23.3
2018-09-01T23:38:29.331Z,23.3
2018-09-01T23:43:26.478Z,23.3
2018-09-01T23:48:23.793Z,23.2
2018-09-01T23:53:20.871Z,23.2
2018-09-01T23:58:18.724Z,23.1
